Time;durP1;ratioP1;P1;durP2;ratioP2;P2;SDS_P1;SDS_P2;PMS_P1;PMS_P2;Temp;Humidity;BMP_temperature;BMP_pressure;BME280_temperature;BME280_humidity;BME280_pressure;Samples;Min_cycle;Max_cycle;Signal;HPM_P1;HPM_P2
2023/02/17 00:02:01;;;;;;;27.17;14.53;;;9.20;99.90;;;;;;5062876;28;20471;-62
2023/02/17 00:04:29;;;;;;;25.80;14.00;;;9.10;99.90;;;;;;5062748;28;20619;-63
2023/02/17 00:06:55;;;;;;;24.67;14.77;;;9.10;99.90;;;;;;5063125;28;20542;-61
2023/02/17 00:09:22;;;;;;;23.47;12.60;;;9.10;99.90;;;;;;5062929;28;20471;-62
2023/02/17 00:11:50;;;;;;;25.60;14.20;;;9.10;99.90;;;;;;5063193;28;20569;-60
2023/02/17 00:14:17;;;;;;;20.90;12.57;;;9.10;99.90;;;;;;5062648;28;21114;-63
2023/02/17 00:16:44;;;;;;;29.30;16.90;;;9.10;99.90;;;;;;5062665;28;20525;-62
2023/02/17 00:19:25;;;;;;;22.17;14.37;;;9.10;99.90;;;;;;5062982;28;20447;-63
2023/02/17 00:21:53;;;;;;;24.07;14.37;;;9.00;99.90;;;;;;5062863;28;20529;-60
2023/02/17 00:24:20;;;;;;;24.40;13.50;;;9.00;99.90;;;;;;5062673;28;20838;-59
2023/02/17 00:26:47;;;;;;;24.17;14.50;;;9.00;99.90;;;;;;5062887;28;20466;-62
2023/02/17 00:29:14;;;;;;;27.20;13.00;;;9.00;99.90;;;;;;5062540;28;20559;-62
2023/02/17 00:31:41;;;;;;;23.77;13.53;;;9.00;99.90;;;;;;5060901;28;20561;-62
2023/02/17 00:34:08;;;;;;;25.60;13.70;;;9.00;99.90;;;;;;5060933;28;20447;-61
2023/02/17 00:36:37;;;;;;;34.03;16.87;;;9.00;99.90;;;;;;5062126;28;20537;-61
2023/02/17 00:39:04;;;;;;;30.63;14.87;;;9.00;99.90;;;;;;5061748;28;20478;-63
2023/02/17 00:41:31;;;;;;;29.03;15.20;;;9.00;99.90;;;;;;5061528;28;20509;-62
2023/02/17 00:43:59;;;;;;;26.20;14.50;;;8.90;99.90;;;;;;5062498;28;20526;-59
2023/02/17 00:46:26;;;;;;;26.43;14.13;;;8.90;99.90;;;;;;5061837;28;20451;-60
2023/02/17 00:48:57;;;;;;;26.17;13.90;;;8.80;99.90;;;;;;5062484;28;20474;-61
2023/02/17 00:51:24;;;;;;;28.23;14.10;;;8.80;99.90;;;;;;5062229;28;20444;-62
2023/02/17 00:53:52;;;;;;;30.33;14.97;;;8.80;99.90;;;;;;5062924;28;20521;-61
2023/02/17 00:56:19;;;;;;;22.30;14.40;;;7.10;99.90;;;;;;5062409;28;20479;-62
2023/02/17 00:58:46;;;;;;;25.17;13.57;;;8.80;99.90;;;;;;5062489;28;20467;-62
2023/02/17 01:01:13;;;;;;;24.70;13.07;;;8.80;99.90;;;;;;5062454;28;20471;-62
2023/02/17 01:03:40;;;;;;;24.70;14.53;;;8.70;99.90;;;;;;5062851;28;20477;-62
2023/02/17 01:06:15;;;;;;;25.23;14.17;;;8.80;99.90;;;;;;5063026;28;20427;-60
2023/02/17 01:08:42;;;;;;;25.93;15.03;;;8.80;99.90;;;;;;5062608;28;20895;-63
2023/02/17 01:11:17;;;;;;;26.83;14.57;;;8.80;99.90;;;;;;5062381;28;20443;-62
2023/02/17 01:13:44;;;;;;;25.37;14.20;;;8.80;99.90;;;;;;5062470;28;20522;-63
2023/02/17 01:16:17;;;;;;;26.43;15.37;;;8.80;99.90;;;;;;5061905;28;20578;-59
2023/02/17 01:18:44;;;;;;;28.23;14.57;;;8.80;99.90;;;;;;5062576;28;20520;-61
2023/02/17 01:21:16;;;;;;;29.67;13.73;;;8.80;99.90;;;;;;5062206;28;20499;-59
2023/02/17 01:23:43;;;;;;;26.97;13.77;;;8.80;99.90;;;;;;5062217;28;20503;-62
2023/02/17 01:26:15;;;;;;;29.43;16.47;;;8.80;99.90;;;;;;5062671;28;20545;-59
2023/02/17 01:28:42;;;;;;;19.10;13.13;;;8.80;99.90;;;;;;5062384;28;20542;-63
2023/02/17 01:31:10;;;;;;;22.57;15.10;;;8.80;99.90;;;;;;5062243;28;20928;-63
2023/02/17 01:33:39;;;;;;;22.07;13.50;;;8.90;99.90;;;;;;5068896;28;20451;-56
2023/02/17 01:36:08;;;;;;;25.67;14.17;;;8.80;99.90;;;;;;5071251;28;20483;-59
2023/02/17 01:38:35;;;;;;;24.60;13.97;;;8.80;99.90;;;;;;5071999;28;20514;-60
2023/02/17 01:41:02;;;;;;;25.20;13.20;;;8.80;99.90;;;;;;5072205;28;20468;-58
2023/02/17 01:43:33;;;;;;;22.93;14.30;;;8.70;99.90;;;;;;5067210;28;20521;-62
2023/02/17 01:46:01;;;;;;;26.60;14.87;;;8.80;99.90;;;;;;5062983;28;20486;-59
2023/02/17 01:48:30;;;;;;;22.90;12.70;;;8.80;99.90;;;;;;5062016;28;20562;-62
2023/02/17 01:51:03;;;;;;;29.57;16.23;;;8.80;99.90;;;;;;5062801;28;20530;-63
2023/02/17 01:53:35;;;;;;;25.83;14.00;;;8.70;99.90;;;;;;5065661;28;20546;-63
2023/02/17 01:56:03;;;;;;;22.63;14.90;;;8.70;99.90;;;;;;5066737;28;20546;-62
2023/02/17 01:58:32;;;;;;;22.13;13.47;;;8.70;99.90;;;;;;5065962;28;20478;-62
2023/02/17 02:01:03;;;;;;;23.73;14.30;;;8.70;99.90;;;;;;5066412;28;20477;-63
2023/02/17 02:03:34;;;;;;;25.67;14.93;;;8.70;99.90;;;;;;5066453;28;20514;-63
2023/02/17 02:06:03;;;;;;;28.20;15.10;;;8.70;99.90;;;;;;5066462;28;20530;-56
2023/02/17 02:08:38;;;;;;;32.53;16.17;;;8.70;99.90;;;;;;5065304;28;20463;-63
2023/02/17 02:11:05;;;;;;;24.20;13.40;;;8.70;99.90;;;;;;5064851;28;20490;-62
2023/02/17 02:13:33;;;;;;;24.73;14.30;;;8.70;99.90;;;;;;5065109;28;20525;-61
2023/02/17 02:16:08;;;;;;;34.57;15.97;;;8.70;99.90;;;;;;5065376;28;20510;-63
2023/02/17 02:18:48;;;;;;;27.27;14.37;;;8.60;99.90;;;;;;5065803;28;20470;-63
2023/02/17 02:21:51;;;;;;;28.43;13.43;;;8.60;99.90;;;;;;5065965;28;20471;-61
2023/02/17 02:24:30;;;;;;;32.17;14.67;;;8.60;99.90;;;;;;5066224;28;20526;-62
2023/02/17 02:27:31;;;;;;;27.00;14.60;;;8.50;99.90;;;;;;5066092;28;20534;-61
2023/02/17 02:30:25;;;;;;;24.60;12.47;;;8.50;99.90;;;;;;5066779;28;20503;-61
2023/02/17 02:33:07;;;;;;;28.47;17.27;;;8.40;99.90;;;;;;5066886;28;20467;-63
2023/02/17 02:35:42;;;;;;;28.90;16.30;;;8.40;99.90;;;;;;5066799;28;20473;-63
2023/02/17 02:38:14;;;;;;;31.93;16.10;;;8.40;99.90;;;;;;5066610;28;20514;-62
2023/02/17 02:40:46;;;;;;;25.63;14.80;;;8.40;99.90;;;;;;5066833;28;20904;-60
2023/02/17 02:43:13;;;;;;;33.03;14.70;;;8.40;99.90;;;;;;5067287;28;20535;-62
2023/02/17 02:45:40;;;;;;;28.80;16.07;;;8.30;99.90;;;;;;5066645;28;20497;-63
2023/02/17 02:48:09;;;;;;;30.67;16.70;;;8.30;99.90;;;;;;5067222;28;20459;-58
2023/02/17 02:50:49;;;;;;;37.73;15.70;;;8.30;99.90;;;;;;5067358;28;21007;-63
2023/02/17 02:53:39;;;;;;;28.60;15.27;;;8.30;99.90;;;;;;5067002;28;20491;-63
2023/02/17 02:56:14;;;;;;;26.17;14.43;;;8.30;99.90;;;;;;5066481;28;20491;-60
2023/02/17 02:58:49;;;;;;;42.60;16.50;;;8.30;99.90;;;;;;5066612;28;20477;-61
2023/02/17 03:01:27;;;;;;;29.97;16.63;;;8.30;99.90;;;;;;5066533;28;20494;-57
2023/02/17 03:04:05;;;;;;;25.20;14.70;;;8.30;99.90;;;;;;5064938;28;20534;-60
2023/02/17 03:06:39;;;;;;;23.83;15.00;;;8.30;99.90;;;;;;5066280;28;20473;-64
2023/02/17 03:09:11;;;;;;;27.67;15.00;;;8.20;99.90;;;;;;5066388;28;20458;-62
2023/02/17 03:11:41;;;;;;;30.93;16.20;;;8.20;99.90;;;;;;5066934;28;20488;-60
2023/02/17 03:14:10;;;;;;;30.37;15.87;;;8.30;99.90;;;;;;5066426;28;20471;-59
2023/02/17 03:16:38;;;;;;;26.23;13.53;;;8.30;99.90;;;;;;5066026;28;20518;-63
2023/02/17 03:19:07;;;;;;;27.77;14.47;;;8.30;99.90;;;;;;5066691;28;20502;-58
2023/02/17 03:21:39;;;;;;;31.90;17.87;;;8.20;99.90;;;;;;5066033;28;20931;-64
2023/02/17 03:24:06;;;;;;;33.77;17.53;;;8.20;99.90;;;;;;5066519;28;20554;-57
2023/02/17 03:26:33;;;;;;;37.70;18.00;;;8.20;99.90;;;;;;5066287;28;20446;-63
2023/02/17 03:29:00;;;;;;;25.03;13.50;;;8.20;99.90;;;;;;5066085;28;20531;-62
2023/02/17 03:31:27;;;;;;;28.53;13.63;;;8.20;99.90;;;;;;5066541;28;20958;-59
2023/02/17 03:33:54;;;;;;;29.97;17.60;;;8.20;99.90;;;;;;5065443;28;20473;-58
2023/02/17 03:36:22;;;;;;;38.07;15.63;;;8.20;99.90;;;;;;5065782;28;20527;-59
2023/02/17 03:38:49;;;;;;;35.27;14.27;;;8.30;99.90;;;;;;5065870;28;20522;-62
2023/02/17 03:41:16;;;;;;;35.87;16.33;;;8.30;99.90;;;;;;5065267;28;20642;-63
2023/02/17 03:43:45;;;;;;;35.47;16.20;;;8.30;99.90;;;;;;5066439;28;20458;-61
2023/02/17 03:46:12;;;;;;;30.73;14.80;;;8.20;99.90;;;;;;5065830;28;21069;-63
2023/02/17 03:48:39;;;;;;;26.57;14.80;;;8.20;99.90;;;;;;5065517;28;20495;-64
2023/02/17 03:51:14;;;;;;;29.97;16.10;;;8.30;99.90;;;;;;5065170;28;20506;-63
2023/02/17 03:53:45;;;;;;;30.70;15.40;;;8.30;99.90;;;;;;5066447;28;20836;-64
2023/02/17 03:56:13;;;;;;;27.47;14.80;;;8.30;99.90;;;;;;5065744;28;20538;-59
2023/02/17 03:58:41;;;;;;;29.07;16.47;;;8.20;99.90;;;;;;5064236;28;20726;-62
2023/02/17 04:01:09;;;;;;;35.37;18.27;;;8.30;99.90;;;;;;5065147;28;20467;-62
2023/02/17 04:03:37;;;;;;;26.83;16.40;;;8.30;99.90;;;;;;5065927;28;20482;-62
2023/02/17 04:06:04;;;;;;;27.53;16.70;;;8.20;99.90;;;;;;5065475;28;20439;-62
2023/02/17 04:08:34;;;;;;;32.97;16.20;;;8.20;99.90;;;;;;5065476;28;20531;-62
2023/02/17 04:11:04;;;;;;;24.30;14.97;;;8.10;99.90;;;;;;5065325;28;20538;-61
2023/02/17 04:13:31;;;;;;;31.03;15.97;;;8.20;99.90;;;;;;5065237;28;20550;-62
2023/02/17 04:16:00;;;;;;;37.93;17.83;;;8.20;99.90;;;;;;5063988;28;20565;-63
2023/02/17 04:18:27;;;;;;;31.40;15.63;;;8.20;99.90;;;;;;5065270;28;20494;-58
2023/02/17 04:20:56;;;;;;;28.13;15.93;;;8.20;99.90;;;;;;5064308;28;20475;-58
2023/02/17 04:23:26;;;;;;;37.40;16.53;;;8.20;99.90;;;;;;5064868;28;20491;-67
2023/02/17 04:25:54;;;;;;;33.67;17.50;;;8.30;99.90;;;;;;5064608;28;20511;-62
2023/02/17 04:28:22;;;;;;;27.13;15.20;;;8.30;99.90;;;;;;5064419;28;20495;-55
2023/02/17 04:30:51;;;;;;;30.70;16.97;;;8.20;99.90;;;;;;5064559;28;20555;-63
2023/02/17 04:33:19;;;;;;;30.77;15.67;;;8.20;99.90;;;;;;5065910;28;20475;-58
2023/02/17 04:35:47;;;;;;;32.37;18.10;;;8.20;99.90;;;;;;5072985;28;20490;-62
2023/02/17 04:38:15;;;;;;;24.17;14.13;;;8.30;99.90;;;;;;5072811;28;20526;-61
2023/02/17 04:40:42;;;;;;;27.40;15.37;;;8.20;99.90;;;;;;5072971;28;20451;-59
2023/02/17 04:43:10;;;;;;;35.97;18.00;;;8.20;99.90;;;;;;5072706;28;20979;-61
2023/02/17 04:45:38;;;;;;;28.73;16.23;;;8.20;99.90;;;;;;5073474;28;20435;-57
2023/02/17 04:48:05;;;;;;;31.10;16.70;;;8.30;99.90;;;;;;5073079;28;20499;-61
2023/02/17 04:50:32;;;;;;;29.23;14.93;;;8.30;99.90;;;;;;5073003;28;20804;-62
2023/02/17 04:53:03;;;;;;;25.47;14.97;;;8.30;99.90;;;;;;5072569;28;20491;-64
2023/02/17 04:55:33;;;;;;;29.00;17.37;;;8.30;99.90;;;;;;5072820;28;20469;-59
2023/02/17 04:58:04;;;;;;;27.47;15.60;;;8.40;99.90;;;;;;5072687;28;20481;-62
2023/02/17 05:00:33;;;;;;;30.03;15.33;;;8.30;99.90;;;;;;5072144;28;20439;-61
2023/02/17 05:03:02;;;;;;;25.10;14.97;;;8.30;99.90;;;;;;5073512;28;21077;-61
2023/02/17 05:05:29;;;;;;;27.30;14.93;;;8.30;99.90;;;;;;5071628;28;20474;-61
2023/02/17 05:07:56;;;;;;;30.90;15.40;;;8.30;99.90;;;;;;5072464;28;20435;-53
2023/02/17 05:10:23;;;;;;;30.27;15.40;;;8.40;99.90;;;;;;5072385;28;20447;-58
2023/02/17 05:12:51;;;;;;;27.40;14.50;;;8.40;99.90;;;;;;5072552;28;20463;-61
2023/02/17 05:15:18;;;;;;;25.67;16.33;;;8.40;99.90;;;;;;5072289;28;20501;-63
2023/02/17 05:17:51;;;;;;;33.67;16.07;;;8.30;99.90;;;;;;5071341;28;20510;-57
2023/02/17 05:20:20;;;;;;;27.97;14.90;;;8.50;99.90;;;;;;5072423;28;20482;-61
2023/02/17 05:22:47;;;;;;;30.97;17.60;;;8.40;99.90;;;;;;5073040;28;20447;-57
2023/02/17 05:25:13;;;;;;;32.77;15.30;;;8.40;99.90;;;;;;5072235;28;20463;-57
2023/02/17 05:27:40;;;;;;;29.03;15.20;;;8.40;99.90;;;;;;5074542;28;20933;-60
2023/02/17 05:30:08;;;;;;;27.33;16.47;;;8.40;99.90;;;;;;5076171;28;20446;-57
2023/02/17 05:32:35;;;;;;;46.33;16.90;;;8.40;99.90;;;;;;5075937;28;20443;-61
2023/02/17 05:35:04;;;;;;;30.73;16.03;;;8.40;99.90;;;;;;5075677;28;20462;-61
2023/02/17 05:37:32;;;;;;;26.03;13.90;;;8.40;99.90;;;;;;5075758;28;20477;-60
2023/02/17 05:40:04;;;;;;;27.87;15.20;;;8.40;99.90;;;;;;5076303;28;20450;-60
2023/02/17 05:42:34;;;;;;;25.30;14.27;;;8.40;99.90;;;;;;5075827;28;20491;-63
2023/02/17 05:45:02;;;;;;;25.43;15.00;;;8.40;99.90;;;;;;5076034;28;20447;-61
2023/02/17 05:47:30;;;;;;;27.73;15.37;;;8.30;99.90;;;;;;5076059;28;20477;-60
2023/02/17 05:49:56;;;;;;;30.13;15.60;;;8.30;99.90;;;;;;5076884;28;20431;-62
2023/02/17 05:52:25;;;;;;;28.37;15.80;;;8.40;99.90;;;;;;5076810;28;20483;-58
2023/02/17 05:54:53;;;;;;;37.10;17.87;;;8.40;99.90;;;;;;5076653;28;20451;-57
2023/02/17 05:57:22;;;;;;;28.10;16.67;;;8.40;99.90;;;;;;5076009;28;20497;-60
2023/02/17 05:59:52;;;;;;;25.67;14.43;;;8.40;99.90;;;;;;5075824;28;20486;-57
2023/02/17 06:02:19;;;;;;;31.70;15.83;;;8.50;99.90;;;;;;5075898;28;20481;-58
2023/02/17 06:04:46;;;;;;;27.33;15.10;;;8.50;99.90;;;;;;5075919;28;20521;-62
2023/02/17 06:07:13;;;;;;;30.87;16.13;;;8.50;99.90;;;;;;5075907;28;20438;-64
2023/02/17 06:09:43;;;;;;;28.10;16.40;;;8.50;99.90;;;;;;5075732;28;20450;-62
2023/02/17 06:12:14;;;;;;;42.23;19.13;;;8.50;99.90;;;;;;5076132;28;20475;-60
2023/02/17 06:14:41;;;;;;;36.70;19.50;;;8.50;99.90;;;;;;5075661;28;20466;-59
2023/02/17 06:17:10;;;;;;;28.23;14.77;;;8.50;99.90;;;;;;5075472;28;20506;-58
2023/02/17 06:19:37;;;;;;;26.73;14.17;;;8.70;99.90;;;;;;5075319;28;20471;-61
2023/02/17 06:22:05;;;;;;;25.03;14.80;;;8.50;99.90;;;;;;5074742;28;20522;-60
2023/02/17 06:24:37;;;;;;;22.00;13.43;;;8.60;99.90;;;;;;5075115;28;20439;-60
2023/02/17 06:27:04;;;;;;;26.50;13.73;;;8.60;99.90;;;;;;5074803;28;20459;-60
2023/02/17 06:29:32;;;;;;;25.80;13.87;;;8.60;99.90;;;;;;5075535;28;20466;-61
2023/02/17 06:32:02;;;;;;;26.93;13.70;;;8.60;99.90;;;;;;5074693;28;20451;-56
2023/02/17 06:34:29;;;;;;;25.80;14.53;;;8.60;99.90;;;;;;5076021;28;20432;-63
2023/02/17 06:36:56;;;;;;;26.00;15.37;;;8.60;99.90;;;;;;5075013;28;20506;-60
2023/02/17 06:39:23;;;;;;;29.07;15.50;;;8.60;99.90;;;;;;5075046;28;20487;-60
2023/02/17 06:41:50;;;;;;;23.70;13.77;;;8.60;99.90;;;;;;5075092;28;20542;-56
2023/02/17 06:44:17;;;;;;;20.03;13.33;;;8.70;99.90;;;;;;5075453;28;20463;-59
2023/02/17 06:46:45;;;;;;;24.60;12.73;;;8.70;99.90;;;;;;5074852;28;20481;-60
2023/02/17 06:49:13;;;;;;;19.60;13.20;;;8.80;99.90;;;;;;5075040;28;21097;-61
2023/02/17 06:51:41;;;;;;;28.90;14.90;;;8.80;99.90;;;;;;5074444;28;20479;-59
2023/02/17 06:54:08;;;;;;;24.43;13.00;;;8.80;99.90;;;;;;5073663;28;20427;-61
2023/02/17 06:56:38;;;;;;;21.87;13.03;;;8.90;99.90;;;;;;5073737;28;20475;-60
2023/02/17 06:59:13;;;;;;;23.47;13.20;;;8.90;99.90;;;;;;5073541;28;20507;-58
2023/02/17 07:01:40;;;;;;;21.73;12.47;;;8.90;99.90;;;;;;5073668;28;20470;-56
2023/02/17 07:04:08;;;;;;;38.00;20.30;;;8.90;99.90;;;;;;5073416;28;20431;-58
2023/02/17 07:06:35;;;;;;;28.07;15.87;;;9.00;99.90;;;;;;5072649;28;20495;-62
2023/02/17 07:09:06;;;;;;;27.73;13.87;;;9.10;99.90;;;;;;5073142;28;20598;-62
2023/02/17 07:11:33;;;;;;;16.87;10.83;;;9.10;99.90;;;;;;5073014;28;20455;-63
2023/02/17 07:14:01;;;;;;;36.30;15.27;;;9.10;99.90;;;;;;5073313;28;20439;-58
2023/02/17 07:16:28;;;;;;;22.33;13.07;;;9.10;99.90;;;;;;5072813;28;20473;-61
2023/02/17 07:18:55;;;;;;;20.83;11.37;;;9.10;99.90;;;;;;5073273;28;20475;-58
2023/02/17 07:21:23;;;;;;;18.80;12.27;;;9.20;99.90;;;;;;5073940;28;20444;-58
2023/02/17 07:23:50;;;;;;;17.90;11.67;;;9.10;99.90;;;;;;5073121;28;20506;-61
2023/02/17 07:26:17;;;;;;;18.80;11.30;;;9.20;99.90;;;;;;5073055;28;20447;-63
2023/02/17 07:28:44;;;;;;;19.97;11.97;;;9.20;99.90;;;;;;5073177;28;20501;-62
2023/02/17 07:31:13;;;;;;;19.20;12.00;;;9.30;99.90;;;;;;5072663;28;20481;-62
2023/02/17 07:33:40;;;;;;;16.73;10.50;;;9.00;99.90;;;;;;5072977;28;20475;-58
2023/02/17 07:36:08;;;;;;;19.03;11.40;;;9.30;99.90;;;;;;5072075;28;20448;-61
2023/02/17 07:38:38;;;;;;;19.60;11.37;;;9.30;99.90;;;;;;5071867;28;20478;-64
2023/02/17 07:41:06;;;;;;;20.50;13.00;;;9.40;99.90;;;;;;5071833;28;20506;-51
2023/02/17 07:43:33;;;;;;;18.87;11.93;;;9.40;99.90;;;;;;5066614;28;20911;-62
2023/02/17 07:46:00;;;;;;;21.87;11.07;;;9.40;99.90;;;;;;5057039;28;20459;-63
2023/02/17 07:48:27;;;;;;;23.97;13.73;;;9.50;99.90;;;;;;5057071;28;20490;-62
2023/02/17 07:50:56;;;;;;;23.73;11.90;;;9.50;99.90;;;;;;5055515;28;20523;-61
2023/02/17 07:53:23;;;;;;;17.50;10.27;;;9.60;99.90;;;;;;5056877;28;20965;-63
2023/02/17 07:55:52;;;;;;;15.90;12.10;;;9.50;99.90;;;;;;5057491;28;20537;-63
2023/02/17 07:58:19;;;;;;;23.13;12.70;;;9.50;99.90;;;;;;5057969;28;20541;-61
2023/02/17 08:00:48;;;;;;;20.20;10.73;;;9.60;99.90;;;;;;5058945;28;20451;-65
2023/02/17 08:03:15;;;;;;;22.30;11.50;;;9.30;99.90;;;;;;5059181;28;20482;-64
2023/02/17 08:05:42;;;;;;;20.43;13.40;;;9.60;99.90;;;;;;5058179;28;20447;-64
2023/02/17 08:13:39;;;;;;;20.77;11.60;;;9.60;99.90;;;;;;5058442;28;20459;-64
2023/02/17 08:16:06;;;;;;;18.93;11.77;;;9.60;99.90;;;;;;5058374;28;20451;-64
2023/02/17 08:18:33;;;;;;;26.40;12.57;;;9.70;99.90;;;;;;5058109;28;20495;-64
2023/02/17 08:21:01;;;;;;;18.40;11.20;;;9.70;99.90;;;;;;5058341;28;20479;-63
2023/02/17 08:23:29;;;;;;;22.43;13.07;;;9.70;99.90;;;;;;5057860;28;20451;-63
2023/02/17 08:25:58;;;;;;;20.80;12.13;;;9.70;99.90;;;;;;5058128;28;20435;-65
2023/02/17 08:28:27;;;;;;;20.40;12.20;;;9.90;99.90;;;;;;5057881;28;20441;-64
2023/02/17 08:30:54;;;;;;;17.93;11.07;;;9.70;99.90;;;;;;5057685;28;20927;-63
2023/02/17 08:33:21;;;;;;;19.40;9.60;;;9.80;99.90;;;;;;5057561;28;20466;-66
2023/02/17 08:35:48;;;;;;;19.40;10.97;;;9.80;99.90;;;;;;5056923;28;20464;-60
2023/02/17 08:38:15;;;;;;;14.67;9.20;;;9.90;99.90;;;;;;5057235;28;20474;-65
2023/02/17 08:40:42;;;;;;;22.50;10.53;;;9.90;99.90;;;;;;5054570;28;20486;-64
2023/02/17 08:43:12;;;;;;;15.90;9.10;;;9.90;99.90;;;;;;5057557;28;20518;-63
2023/02/17 08:45:39;;;;;;;12.50;9.03;;;10.00;99.90;;;;;;5056979;28;20453;-63
2023/02/17 08:48:06;;;;;;;15.97;9.87;;;9.90;99.90;;;;;;5057710;28;20559;-66
2023/02/17 08:50:33;;;;;;;18.30;10.47;;;9.90;99.90;;;;;;5057415;28;20797;-64
2023/02/17 08:53:00;;;;;;;15.27;9.97;;;9.90;99.90;;;;;;5057086;28;20471;-64
2023/02/17 08:55:27;;;;;;;16.00;9.50;;;9.90;99.90;;;;;;5057799;28;20459;-65
2023/02/17 08:57:54;;;;;;;16.60;10.10;;;9.90;99.90;;;;;;5057447;28;20542;-65
2023/02/17 09:00:22;;;;;;;19.43;10.50;;;9.90;99.90;;;;;;5062248;28;20478;-65
2023/02/17 09:02:51;;;;;;;15.17;9.40;;;9.90;99.90;;;;;;5074873;28;20467;-66
2023/02/17 09:05:18;;;;;;;12.50;8.93;;;9.90;99.90;;;;;;5075125;28;20455;-63
2023/02/17 09:07:45;;;;;;;19.67;10.67;;;9.90;99.90;;;;;;5075403;28;20440;-61
2023/02/17 09:10:13;;;;;;;30.63;18.67;;;10.00;99.90;;;;;;5072156;28;20428;-62
2023/02/17 09:12:40;;;;;;;17.37;10.80;;;10.00;99.90;;;;;;5071205;28;20430;-63
2023/02/17 09:15:07;;;;;;;20.70;12.10;;;10.00;99.90;;;;;;5070485;28;20467;-65
2023/02/17 09:17:39;;;;;;;18.87;10.53;;;9.00;99.90;;;;;;5070070;28;20471;-65
2023/02/17 09:20:08;;;;;;;19.10;11.47;;;10.10;99.90;;;;;;5070276;28;20475;-62
2023/02/17 09:22:35;;;;;;;16.00;11.00;;;10.00;99.90;;;;;;5070718;28;20443;-66
2023/02/17 09:25:05;;;;;;;14.97;9.70;;;10.00;99.90;;;;;;5070426;28;20447;-64
2023/02/17 09:27:34;;;;;;;19.63;10.73;;;10.00;99.90;;;;;;5070671;28;20427;-62
2023/02/17 09:30:01;;;;;;;19.90;9.53;;;10.00;99.90;;;;;;5070849;28;20957;-64
2023/02/17 09:32:28;;;;;;;14.40;10.40;;;10.00;99.90;;;;;;5070694;28;20435;-63
2023/02/17 09:35:00;;;;;;;17.37;11.10;;;9.90;99.90;;;;;;5070215;28;20787;-66
2023/02/17 09:37:33;;;;;;;21.10;11.03;;;9.90;99.90;;;;;;5067897;28;20475;-62
2023/02/17 09:40:00;;;;;;;16.23;10.60;;;9.90;99.90;;;;;;5062299;28;20489;-63
2023/02/17 09:42:34;;;;;;;17.73;10.70;;;10.00;99.90;;;;;;5060928;28;20611;-64
2023/02/17 09:45:05;;;;;;;17.33;9.70;;;9.90;99.90;;;;;;5060833;28;20438;-60
2023/02/17 09:47:37;;;;;;;17.30;10.67;;;10.00;99.90;;;;;;5060662;28;20567;-62
2023/02/17 09:50:13;;;;;;;17.60;10.27;;;9.90;99.90;;;;;;5060381;28;20423;-64
2023/02/17 09:52:47;;;;;;;14.30;9.23;;;9.90;99.90;;;;;;5061036;28;20423;-65
2023/02/17 09:55:21;;;;;;;18.27;10.17;;;9.90;99.90;;;;;;5061123;28;20483;-63
2023/02/17 09:57:54;;;;;;;22.80;11.90;;;9.90;99.90;;;;;;5061063;28;20505;-61
2023/02/17 10:00:23;;;;;;;19.70;11.10;;;10.00;99.90;;;;;;5063636;28;20439;-62
2023/02/17 10:02:59;;;;;;;14.10;9.57;;;10.00;99.90;;;;;;5075571;28;20752;-61
2023/02/17 10:05:34;;;;;;;16.93;9.70;;;10.00;99.90;;;;;;5075622;28;20862;-62
2023/02/17 10:08:06;;;;;;;15.93;9.87;;;9.90;99.90;;;;;;5071517;28;20530;-62
2023/02/17 10:10:39;;;;;;;15.80;10.27;;;9.90;99.90;;;;;;5062417;28;20463;-62
2023/02/17 10:13:08;;;;;;;16.13;11.30;;;9.90;99.90;;;;;;5063196;28;20424;-61
2023/02/17 10:15:41;;;;;;;16.27;9.83;;;9.80;99.90;;;;;;5065456;28;20475;-61
2023/02/17 10:18:14;;;;;;;19.10;10.70;;;9.80;99.90;;;;;;5064806;28;20502;-61
2023/02/17 10:20:50;;;;;;;17.87;10.50;;;9.80;99.90;;;;;;5064574;28;20431;-63
2023/02/17 10:23:21;;;;;;;18.33;10.43;;;9.80;99.90;;;;;;5065055;28;20423;-63
2023/02/17 10:26:17;;;;;;;21.87;11.47;;;9.80;99.90;;;;;;5065093;28;20482;-65
2023/02/17 10:28:51;;;;;;;17.40;10.80;;;9.90;99.90;;;;;;5059629;28;20451;-62
2023/02/17 10:31:31;;;;;;;15.47;11.13;;;9.80;99.90;;;;;;5064578;28;20739;-64
2023/02/17 10:34:02;;;;;;;19.87;11.07;;;9.80;99.90;;;;;;5064194;28;20438;-64
2023/02/17 10:36:41;;;;;;;24.87;12.17;;;9.90;99.90;;;;;;5063582;28;20470;-64
2023/02/17 10:39:14;;;;;;;25.83;12.90;;;9.90;99.90;;;;;;5063948;28;20525;-63
2023/02/17 10:41:44;;;;;;;18.80;11.90;;;9.90;99.90;;;;;;5063725;28;20455;-65
2023/02/17 10:44:22;;;;;;;27.00;12.90;;;9.90;99.90;;;;;;5064304;28;20466;-64
2023/02/17 10:46:51;;;;;;;21.13;13.17;;;9.90;99.90;;;;;;5064138;28;20542;-61
2023/02/17 10:49:25;;;;;;;20.30;11.90;;;10.00;99.90;;;;;;5064176;28;20463;-62
2023/02/17 10:51:54;;;;;;;16.47;11.53;;;10.00;99.90;;;;;;5064207;28;20448;-62
2023/02/17 10:54:29;;;;;;;19.33;12.77;;;10.00;99.90;;;;;;5064341;28;20521;-62
2023/02/17 10:57:01;;;;;;;17.80;12.20;;;10.00;99.90;;;;;;5064182;28;20431;-65
2023/02/17 10:59:33;;;;;;;20.50;11.73;;;10.20;99.90;;;;;;5063341;28;20501;-64
2023/02/17 11:02:15;;;;;;;16.27;10.93;;;10.10;99.90;;;;;;5063699;28;20545;-65
2023/02/17 11:04:43;;;;;;;19.90;11.90;;;10.10;99.90;;;;;;5063920;28;20457;-65
2023/02/17 11:07:15;;;;;;;18.33;11.17;;;10.10;99.90;;;;;;5063486;28;20471;-63
2023/02/17 11:09:47;;;;;;;17.73;11.30;;;10.10;99.90;;;;;;5063325;28;20428;-64
2023/02/17 11:12:16;;;;;;;18.97;10.60;;;10.20;99.90;;;;;;5063133;28;20502;-66
2023/02/17 11:14:46;;;;;;;24.27;13.90;;;10.20;99.90;;;;;;5062476;28;20451;-63
2023/02/17 11:17:18;;;;;;;26.97;14.70;;;10.20;99.90;;;;;;5062801;28;20502;-65
2023/02/17 11:19:57;;;;;;;21.00;12.27;;;10.30;99.90;;;;;;5063228;28;20471;-64
2023/02/17 11:22:35;;;;;;;18.10;11.80;;;10.30;99.90;;;;;;5062934;28;20462;-65
2023/02/17 11:25:07;;;;;;;21.90;12.53;;;10.40;99.90;;;;;;5062566;28;20435;-64
2023/02/17 11:27:34;;;;;;;14.77;10.50;;;10.40;99.90;;;;;;5062717;28;20471;-64
2023/02/17 11:30:17;;;;;;;19.80;11.37;;;10.50;99.90;;;;;;5062397;28;20431;-63
2023/02/17 11:32:44;;;;;;;16.57;11.27;;;10.60;99.90;;;;;;5062614;28;20427;-64
2023/02/17 11:35:23;;;;;;;18.10;10.33;;;10.60;99.90;;;;;;5062210;28;20475;-61
2023/02/17 11:37:51;;;;;;;17.60;11.17;;;10.70;99.90;;;;;;5062461;28;20488;-63
2023/02/17 11:40:25;;;;;;;17.30;10.57;;;10.70;99.90;;;;;;5070067;28;20443;-61
2023/02/17 11:42:59;;;;;;;16.50;10.23;;;10.70;99.90;;;;;;5075667;28;20434;-63
2023/02/17 11:45:30;;;;;;;14.90;8.97;;;10.80;99.90;;;;;;5070606;28;20481;-64
2023/02/17 11:48:19;;;;;;;17.37;10.67;;;10.90;99.90;;;;;;5071603;28;20458;-62
2023/02/17 11:50:56;;;;;;;17.50;8.70;;;10.90;99.90;;;;;;5070398;28;20544;-63
2023/02/17 11:53:39;;;;;;;15.23;9.27;;;8.40;99.90;;;;;;5070108;28;20442;-64
2023/02/17 11:56:16;;;;;;;12.70;8.10;;;11.00;99.90;;;;;;5070089;28;20459;-64
2023/02/17 11:58:59;;;;;;;13.40;9.10;;;11.00;99.90;;;;;;5070104;28;20481;-65
2023/02/17 12:01:41;;;;;;;13.20;8.40;;;11.10;99.90;;;;;;5069947;28;20428;-63
2023/02/17 12:04:26;;;;;;;13.10;7.63;;;11.10;99.90;;;;;;5070699;28;20450;-63
2023/02/17 12:07:14;;;;;;;11.50;8.17;;;11.10;99.90;;;;;;5069609;28;20443;-64
2023/02/17 12:09:48;;;;;;;10.83;8.07;;;11.20;99.90;;;;;;5069453;28;20475;-66
2023/02/17 12:12:26;;;;;;;10.80;7.77;;;11.20;99.90;;;;;;5069837;28;20420;-65
2023/02/17 12:15:15;;;;;;;11.20;7.67;;;11.20;99.90;;;;;;5069596;28;20493;-64
2023/02/17 12:17:50;;;;;;;14.40;7.67;;;11.20;99.90;;;;;;5069823;28;20837;-63
2023/02/17 12:20:33;;;;;;;10.87;7.07;;;11.30;99.90;;;;;;5069423;28;20554;-63
2023/02/17 12:23:12;;;;;;;12.17;7.27;;;11.30;99.90;;;;;;5069179;28;20489;-63
2023/02/17 12:25:50;;;;;;;10.90;7.80;;;11.40;99.90;;;;;;5069667;28;20471;-63
2023/02/17 12:28:41;;;;;;;9.33;6.23;;;11.40;99.90;;;;;;5068922;28;20439;-63
2023/02/17 12:31:15;;;;;;;9.93;6.63;;;11.50;99.90;;;;;;5068258;28;20959;-64
2023/02/17 12:33:56;;;;;;;12.50;8.33;;;11.50;99.90;;;;;;5069323;28;20463;-63
2023/02/17 12:36:30;;;;;;;9.60;7.00;;;11.60;99.90;;;;;;5068123;28;20467;-63
2023/02/17 12:39:01;;;;;;;8.60;6.10;;;11.70;99.90;;;;;;5068763;28;20474;-62
2023/02/17 12:41:34;;;;;;;6.73;6.00;;;11.70;99.90;;;;;;5068641;28;20498;-60
2023/02/17 12:44:06;;;;;;;8.87;5.80;;;11.70;99.90;;;;;;5069707;28;20513;-63
2023/02/17 12:46:38;;;;;;;8.23;5.60;;;11.80;99.90;;;;;;5069379;28;20507;-65
2023/02/17 12:49:11;;;;;;;7.77;5.87;;;11.80;99.90;;;;;;5067820;28;20482;-60
2023/02/17 12:51:41;;;;;;;11.53;6.00;;;12.00;99.90;;;;;;5068010;28;20431;-63
2023/02/17 12:54:17;;;;;;;6.40;5.50;;;12.00;99.90;;;;;;5068531;28;20471;-63
2023/02/17 12:57:05;;;;;;;7.53;5.67;;;12.00;99.90;;;;;;5068347;28;20455;-64
2023/02/17 12:59:34;;;;;;;9.47;6.60;;;12.10;99.90;;;;;;5067797;28;20474;-64